Huvudsida
METAR-TAF:

METAR-TAF

Flygplatser :

Dzaoudzi, Mayotte

latitud: 12-48S, longitud: 045-17E, höjd: 8 m

Aktuellt väderrapport

Denna rapport gjordes för 19 minuter sedan, klockan 11:30 UTC
Vind 11 kt från syd
Temperatur 29°C
Fuktighet 66%
Tryck 1015 hPa
Sikt 10 km eller mer
Spridda moln på en höjd av 2400 ft

METAR: FMCZ 191130Z AUTO 17011KT 9999 SCT024 29/22 Q1015 NOSIG

Tid: 14:49 (11:49 UTC)

Väderprognos

Denna rapport gjordes för 49 minuter sedan, klockan 11:00 UTC
Prognos gäller från 19 kl. 12 UTC till 20 kl. 12 UTC
Vind 11 kt från syd
Sikt 10 km eller mer
Spridda moln på en höjd av 2400 ft

TAF: FMCZ 191100Z 1912/2012 17011KT 9999 SCT024

Aktuella väderrapporter och prognoser från 4000 flygplatser (METAR- och TAF-rapporter).

De tillgängliga stationerna syns som gula och röda prickar på kartan.

För musen över prickarna för att se namnen på stationerna.

Klicka sedan för att få väderrapporter och prognoser.

För att ändra kartan: Klicka på de gröna knapparna med ett svart kors på för att zooma in; den gröna knappen med ett streck på för att zooma ut; eller på de gröna pilarna för angränsande kartor.


METAR-TAF: